VGHS

Shahjalal International Airport

Airport
ICAO code
VGHS
IATA Code
DAC
Summary
ICAO Region
APAC
ICAO Territory
Location

Kurmitola, Bangladesh

Serving
Dhaka
Elevation
27 ft
Coordinates
23° 50' 36" N , 90° 24' 11" E
KCC
Metar
Observation
VGHS 280830Z 34005KT 3500 HZ FEW025 SCT100 28/16 Q1009 NOSIG
Station
DHAKA
Date/Time
2022-11-28 08:30:00
Wind direction
340°
Wind speed
05 kts
Lowest cloud amount
few clouds
Temperature
28°C
Dew point
16°C
Humidity
48%
QNH
1009 hPa
Weather condition
n/a

Hazrat Shahjalal International Airport, formerly known as Dacca International Airport and Zia International Airport (VGZR), is the largest airport in Bangladesh.

Climatology

Tropical Savanna climate (Köppen climate classification Aw)

Airport map

Aerial View

SKYbrary Partners:

Safety knowledge contributed by: